Time;durP1;ratioP1;P1;durP2;ratioP2;P2;SDS_P1;SDS_P2;PMS_P1;PMS_P2;Temp;Humidity;BMP_temperature;BMP_pressure;BME280_temperature;BME280_humidity;BME280_pressure;Samples;Min_cycle;Max_cycle;Signal;HPM_P1;HPM_P2
2019/06/08 00:01:18;;;;;;;5.5;1.4;;;;;;;15.03;65.1123;962.9064;;;;
2019/06/08 00:03:44;;;;;;;2.8;1.3;;;;;;;15.19;64.45801;962.9826;;;;
2019/06/08 00:06:09;;;;;;;2.1;1.2;;;;;;;15.04;66.15039;963.0809;;;;
2019/06/08 00:08:34;;;;;;;2.2;1.1;;;;;;;15.01;66.47363;963.2225;;;;
2019/06/08 00:10:59;;;;;;;3;1.3;;;;;;;15.12;65.26465;963.1533;;;;
2019/06/08 00:13:27;;;;;;;2.2;1.2;;;;;;;15.16;66.22656;963.0675;;;;
2019/06/08 00:15:52;;;;;;;3.3;1.3;;;;;;;15.25;64.69043;963.129;;;;
2019/06/08 01:28:49;;;;;;;2.1;1.2;;;;;;;14.66;58.45215;963.5769;;;;
2019/06/08 01:31:15;;;;;;;1.3;1;;;;;;;14.64;59.18359;963.6002;;;;
2019/06/08 01:33:40;;;;;;;1.7;0.9;;;;;;;14.63;58.95996;963.606;;;;
2019/06/08 01:36:05;;;;;;;2.8;1.1;;;;;;;14.67;59.45508;963.6789;;;;
2019/06/08 01:38:30;;;;;;;2.9;1.1;;;;;;;14.75;59.32617;963.6097;;;;
2019/06/08 01:41:02;;;;;;;2.4;1.1;;;;;;;14.67;58.97754;963.6185;;;;
2019/06/08 01:43:29;;;;;;;2.6;1.1;;;;;;;14.54;59.11133;963.7414;;;;
2019/06/08 01:45:54;;;;;;;3.1;0.9;;;;;;;14.62;60.22852;963.8002;;;;
2019/06/08 01:48:19;;;;;;;2.3;1.2;;;;;;;14.55;59.40332;963.7872;;;;
2019/06/08 01:50:46;;;;;;;1.6;0.8;;;;;;;14.66;58.06836;963.8602;;;;
2019/06/08 01:53:11;;;;;;;2;1;;;;;;;14.57;59.10449;963.9561;;;;
2019/06/08 01:55:36;;;;;;;3.2;0.9;;;;;;;14.54;59.01758;963.9515;;;;
2019/06/08 01:58:02;;;;;;;1.8;1;;;;;;;14.55;58.86816;964.0922;;;;
2019/06/08 02:00:31;;;;;;;2.3;1;;;;;;;14.53;59.06348;964.1239;;;;
2019/06/08 02:02:56;;;;;;;3.3;0.9;;;;;;;14.62;59.68066;964.144;;;;
2019/06/08 02:05:21;;;;;;;2.4;1;;;;;;;14.64;57.6582;964.1283;;;;
2019/06/08 02:07:49;;;;;;;2.3;1;;;;;;;14.59;58.41992;964.1345;;;;
2019/06/08 02:10:14;;;;;;;3.9;1;;;;;;;14.65;57.56445;964.1961;;;;
2019/06/08 02:12:40;;;;;;;2;1.2;;;;;;;14.57;58.26563;964.171;;;;
2019/06/08 02:15:05;;;;;;;2.8;1.1;;;;;;;14.55;57.77344;964.1428;;;;
2019/06/08 02:17:30;;;;;;;1.4;1;;;;;;;14.54;58.59961;964.1744;;;;
2019/06/08 02:19:55;;;;;;;2;1;;;;;;;14.57;57.69531;964.2137;;;;
2019/06/08 02:22:20;;;;;;;3;0.8;;;;;;;14.59;57.80078;964.3237;;;;
2019/06/08 02:24:47;;;;;;;1.7;0.8;;;;;;;14.64;57.83301;964.2353;;;;
2019/06/08 02:27:12;;;;;;;1.5;1;;;;;;;14.54;57.57422;964.325;;;;
2019/06/08 02:29:37;;;;;;;2.1;1;;;;;;;14.55;58.12207;964.3925;;;;
2019/06/08 02:32:04;;;;;;;2;1.1;;;;;;;14.46;58.11035;964.4928;;;;
2019/06/08 02:34:29;;;;;;;2;0.8;;;;;;;14.51;58.26953;964.5642;;;;
2019/06/08 02:36:54;;;;;;;2;1;;;;;;;14.48;59.09082;964.5289;;;;
2019/06/08 02:39:20;;;;;;;2.6;1;;;;;;;14.52;58.62012;964.5247;;;;
2019/06/08 02:41:44;;;;;;;1.5;1.1;;;;;;;14.56;58.1582;964.5332;;;;
2019/06/08 02:44:09;;;;;;;2.7;1.1;;;;;;;14.41;59.08301;964.6179;;;;
2019/06/08 02:46:48;;;;;;;1.9;0.9;;;;;;;14.44;58.5625;964.563;;;;
2019/06/08 02:49:29;;;;;;;2.7;1;;;;;;;14.37;59.21777;964.5706;;;;
2019/06/08 02:51:56;;;;;;;2.7;1.2;;;;;;;14.19;61.33301;964.5873;;;;
2019/06/08 02:54:21;;;;;;;3;1;;;;;;;14.2;59.99609;964.7062;;;;
2019/06/08 02:56:46;;;;;;;3.4;1.3;;;;;;;14.24;60.15234;964.6417;;;;
2019/06/08 02:59:12;;;;;;;4.2;1.3;;;;;;;14.17;60.22461;964.6842;;;;
2019/06/08 03:01:54;;;;;;;3.3;1.3;;;;;;;14.18;60.65723;964.6912;;;;
2019/06/08 03:04:26;;;;;;;3.7;1.2;;;;;;;14.23;60.33691;964.6217;;;;
2019/06/08 03:06:53;;;;;;;1.8;1;;;;;;;14.28;59.89063;964.7147;;;;
2019/06/08 03:09:18;;;;;;;2.6;0.9;;;;;;;14.26;59.88672;964.7472;;;;
2019/06/08 03:11:43;;;;;;;3.2;1;;;;;;;14.13;60.77832;964.6707;;;;
2019/06/08 03:14:11;;;;;;;2.9;1;;;;;;;14.24;60.03711;964.6972;;;;
2019/06/08 03:16:37;;;;;;;2.8;1.1;;;;;;;14.28;59.59961;964.8603;;;;
2019/06/08 03:19:03;;;;;;;2.5;0.9;;;;;;;14.27;59.2959;964.8611;;;;
2019/06/08 03:21:35;;;;;;;4.1;1.1;;;;;;;14.21;60.04395;964.984;;;;
2019/06/08 03:24:21;;;;;;;2.4;0.9;;;;;;;14.22;60.67383;964.9702;;;;
2019/06/08 03:26:47;;;;;;;1.4;0.9;;;;;;;14.11;61.01758;965.0255;;;;
2019/06/08 03:29:28;;;;;;;3.3;1.1;;;;;;;14.19;60.94727;964.9824;;;;
2019/06/08 03:31:53;;;;;;;2.6;1;;;;;;;14.08;61.2832;965.0153;;;;
2019/06/08 03:34:19;;;;;;;2.3;1.1;;;;;;;14.02;62.58887;964.9447;;;;
2019/06/08 03:36:56;;;;;;;2.3;1;;;;;;;13.96;61.96484;964.9684;;;;
2019/06/08 03:39:21;;;;;;;2.2;1.1;;;;;;;14.03;62.44922;964.9744;;;;
2019/06/08 03:41:46;;;;;;;3.7;1.2;;;;;;;14.09;61.67969;965.0273;;;;
2019/06/08 03:44:12;;;;;;;2.3;1.1;;;;;;;14.13;62.01074;965.0142;;;;
2019/06/08 03:46:37;;;;;;;4;1.3;;;;;;;14;62.78223;964.986;;;;
2019/06/08 03:49:02;;;;;;;1.6;1;;;;;;;14.07;62.04785;965.09;;;;
2019/06/08 03:51:27;;;;;;;2.4;1;;;;;;;14.08;61.3877;965.0886;;;;
2019/06/08 03:53:52;;;;;;;2.3;1;;;;;;;14.09;61.50488;965.0748;;;;
2019/06/08 03:56:17;;;;;;;2.9;1.1;;;;;;;14;62.38672;965.1622;;;;
2019/06/08 03:58:43;;;;;;;3.1;1.1;;;;;;;14.02;62.85645;965.1813;;;;
2019/06/08 04:02:37;;;;;;;4.5;1.2;;;;;;;13.96;62.91797;965.2258;;;;
2019/06/08 04:05:16;;;;;;;2;1.1;;;;;;;14.13;61.84766;965.1904;;;;
2019/06/08 04:07:42;;;;;;;2.4;1;;;;;;;14.04;62.26563;965.2996;;;;
2019/06/08 04:10:17;;;;;;;2.3;0.9;;;;;;;14.05;62.05762;965.2849;;;;
2019/06/08 04:12:42;;;;;;;2.5;1.2;;;;;;;14.01;63.16895;965.3365;;;;
2019/06/08 04:15:07;;;;;;;2.9;1;;;;;;;13.99;63.22461;965.4799;;;;
2019/06/08 04:17:32;;;;;;;2;1;;;;;;;14.03;62.79883;965.4545;;;;
2019/06/08 04:19:57;;;;;;;2.8;1.1;;;;;;;14;63.22559;965.5305;;;;
2019/06/08 04:22:25;;;;;;;2.9;1.2;;;;;;;13.95;63.23047;965.4801;;;;
2019/06/08 04:24:50;;;;;;;2.6;1.1;;;;;;;14.05;62.49902;965.5511;;;;
2019/06/08 04:27:18;;;;;;;2.9;1;;;;;;;13.93;62.98242;965.6714;;;;
2019/06/08 04:29:43;;;;;;;1.8;1.1;;;;;;;13.91;63.30566;965.6178;;;;
2019/06/08 04:32:10;;;;;;;3;1.1;;;;;;;13.9;62.98926;965.6361;;;;
2019/06/08 04:34:35;;;;;;;2.1;1.1;;;;;;;13.94;62.16992;965.628;;;;
2019/06/08 04:37:01;;;;;;;3.9;1;;;;;;;14.07;61.78223;965.6475;;;;
2019/06/08 04:39:26;;;;;;;2;1.1;;;;;;;13.97;62.08105;965.6802;;;;
2019/06/08 04:41:53;;;;;;;2.9;1.2;;;;;;;13.93;62.45898;965.7567;;;;
2019/06/08 04:44:18;;;;;;;2.3;1.1;;;;;;;13.89;61.89453;965.7697;;;;
2019/06/08 04:46:43;;;;;;;2.4;1.1;;;;;;;14.01;61.33105;965.8642;;;;
2019/06/08 04:49:08;;;;;;;2.3;1.3;;;;;;;13.92;62.77051;965.9345;;;;
2019/06/08 04:51:33;;;;;;;2.3;1.1;;;;;;;13.94;62.53027;965.9528;;;;
2019/06/08 04:54:03;;;;;;;2.4;1;;;;;;;13.87;62.38086;965.995;;;;
2019/06/08 04:56:39;;;;;;;2;1.1;;;;;;;13.83;63.27051;966.012;;;;
2019/06/08 04:59:21;;;;;;;2.2;1.2;;;;;;;14.05;63.47656;965.9927;;;;
2019/06/08 05:01:47;;;;;;;5.6;1.2;;;;;;;13.83;63.8291;966.0168;;;;
2019/06/08 05:04:12;;;;;;;4.9;1.4;;;;;;;13.78;64.62305;966.0347;;;;
2019/06/08 05:06:37;;;;;;;3.7;1.2;;;;;;;13.85;63.89063;966.0697;;;;
2019/06/08 05:09:02;;;;;;;2.2;1.1;;;;;;;13.88;64.03418;966.118;;;;
2019/06/08 05:11:27;;;;;;;2.1;1.1;;;;;;;13.92;63.85352;966.101;;;;
2019/06/08 05:13:52;;;;;;;4.1;1.2;;;;;;;13.96;63.03418;966.1869;;;;
2019/06/08 05:16:18;;;;;;;5;1.4;;;;;;;13.87;62.72949;966.1752;;;;
2019/06/08 05:18:47;;;;;;;2.5;1.1;;;;;;;13.86;63.10059;966.275;;;;
2019/06/08 05:21:12;;;;;;;4.4;1.3;;;;;;;13.87;63.8584;966.2949;;;;
2019/06/08 05:23:37;;;;;;;4;1.3;;;;;;;13.75;64.14258;966.3812;;;;
2019/06/08 05:26:02;;;;;;;2.6;1.2;;;;;;;13.86;62.7627;966.3956;;;;
2019/06/08 05:28:28;;;;;;;4;1.4;;;;;;;13.88;63.92969;966.4099;;;;
2019/06/08 05:30:52;;;;;;;2.5;1.3;;;;;;;13.87;62.97363;966.4325;;;;
2019/06/08 05:33:18;;;;;;;3.3;1.2;;;;;;;13.96;63.15039;966.4997;;;;
2019/06/08 05:35:43;;;;;;;4.4;1.3;;;;;;;14.03;62.96191;966.4753;;;;
2019/06/08 05:38:10;;;;;;;3.4;1.3;;;;;;;14.09;62.84473;966.4856;;;;
2019/06/08 05:40:35;;;;;;;2.7;1.4;;;;;;;13.92;63.28418;966.5128;;;;
2019/06/08 05:43:02;;;;;;;3.4;1;;;;;;;13.9;63.9209;966.5411;;;;
2019/06/08 05:45:27;;;;;;;2.6;1.1;;;;;;;14;62.63086;966.5778;;;;
2019/06/08 05:47:58;;;;;;;3.2;1.3;;;;;;;13.96;63.38379;966.6027;;;;
2019/06/08 05:50:24;;;;;;;3.1;1.4;;;;;;;14.01;63.2627;966.6443;;;;
2019/06/08 05:52:57;;;;;;;3.1;1.1;;;;;;;14.08;63.51563;966.7019;;;;
2019/06/08 05:55:23;;;;;;;2.8;1.3;;;;;;;14.05;63.41797;966.7054;;;;
2019/06/08 05:57:48;;;;;;;2.8;1.3;;;;;;;14.11;62.64648;966.673;;;;
2019/06/08 06:00:13;;;;;;;2.9;1.2;;;;;;;14.2;63.08008;966.7788;;;;
2019/06/08 06:02:38;;;;;;;2.1;1.1;;;;;;;14.2;63.11426;966.7917;;;;
2019/06/08 06:05:03;;;;;;;3.5;1;;;;;;;14.15;63.8291;966.8224;;;;
2019/06/08 06:07:30;;;;;;;2.3;1.2;;;;;;;14.09;64.96191;966.8332;;;;
2019/06/08 06:09:55;;;;;;;5.2;1.3;;;;;;;14.01;65.19434;966.8116;;;;
2019/06/08 06:12:22;;;;;;;3.7;1.3;;;;;;;14.16;64.58594;966.8175;;;;
2019/06/08 06:14:47;;;;;;;3.1;1.2;;;;;;;14.1;65.85742;966.9264;;;;
2019/06/08 06:17:35;;;;;;;3.6;1.3;;;;;;;13.97;66.31445;966.9621;;;;
2019/06/08 06:20:04;;;;;;;2.6;1.3;;;;;;;14.11;65.45215;967.0028;;;;
2019/06/08 06:22:35;;;;;;;3.3;1.4;;;;;;;14.15;65.44629;967.0591;;;;
2019/06/08 06:25:00;;;;;;;3.5;1.5;;;;;;;14;65.87598;967.0668;;;;
2019/06/08 06:27:42;;;;;;;4;1.4;;;;;;;14.01;67.06543;967.0956;;;;
2019/06/08 06:30:16;;;;;;;4.1;1.3;;;;;;;14.08;67.27441;967.0746;;;;
2019/06/08 06:32:50;;;;;;;3.5;1.6;;;;;;;14.19;67.03613;967.0927;;;;
2019/06/08 06:35:15;;;;;;;4.3;1.3;;;;;;;14.21;66.2334;967.0998;;;;
2019/06/08 06:37:40;;;;;;;2.4;1.4;;;;;;;14.14;66.08496;967.1025;;;;
2019/06/08 06:40:05;;;;;;;2.6;1.2;;;;;;;14.21;66.1875;967.1166;;;;
2019/06/08 06:42:32;;;;;;;2.8;1.1;;;;;;;14.31;65.99316;967.1013;;;;
2019/06/08 06:44:57;;;;;;;4.1;1.5;;;;;;;14.18;66.08984;967.1291;;;;
2019/06/08 06:47:25;;;;;;;4;1.4;;;;;;;14.25;66.17188;967.1769;;;;
2019/06/08 06:49:51;;;;;;;4.6;1.6;;;;;;;14.18;67.38086;967.2618;;;;
2019/06/08 06:52:16;;;;;;;2.3;1.2;;;;;;;14.54;65.29492;967.3003;;;;
2019/06/08 06:54:41;;;;;;;3.2;1.6;;;;;;;14.33;66.62598;967.361;;;;
2019/06/08 06:57:08;;;;;;;2.9;1.3;;;;;;;14.07;67.58691;967.4276;;;;
2019/06/08 06:59:33;;;;;;;4.9;1.3;;;;;;;14.42;65.85938;967.4242;;;;
2019/06/08 07:02:00;;;;;;;3.4;1.4;;;;;;;14.19;67.03613;967.4402;;;;
2019/06/08 07:04:26;;;;;;;4.7;1.4;;;;;;;14.28;66.89746;967.4224;;;;
2019/06/08 07:06:57;;;;;;;7.5;1.6;;;;;;;14.22;67.38965;967.437;;;;
2019/06/08 07:09:27;;;;;;;4.8;1.5;;;;;;;14.43;66.83789;967.4451;;;;
2019/06/08 07:12:01;;;;;;;8.5;1.6;;;;;;;14.31;66.75;967.4844;;;;
2019/06/08 07:14:24;;;;;;;4.2;1.4;;;;;;;14.48;66.78711;967.5426;;;;
2019/06/08 07:16:53;;;;;;;5.8;1.5;;;;;;;14.88;65.87012;967.4994;;;;
2019/06/08 07:19:18;;;;;;;6;1.8;;;;;;;14.32;67.54297;967.5341;;;;
2019/06/08 07:21:44;;;;;;;5.8;1.7;;;;;;;14.5;65.56934;967.5314;;;;
2019/06/08 07:24:09;;;;;;;9.1;1.6;;;;;;;14.51;66.51367;967.5136;;;;
2019/06/08 07:26:35;;;;;;;6.2;1.7;;;;;;;14.63;65.50586;967.5478;;;;
2019/06/08 07:28:59;;;;;;;4.1;1.5;;;;;;;14.53;65.10742;967.5499;;;;
2019/06/08 07:31:27;;;;;;;4.3;1.4;;;;;;;14.73;64.48438;967.6142;;;;
2019/06/08 07:33:52;;;;;;;6.4;1.6;;;;;;;14.71;64.93555;967.5564;;;;
2019/06/08 07:36:22;;;;;;;5.1;1.6;;;;;;;14.87;65.0293;967.5991;;;;
2019/06/08 07:38:50;;;;;;;8;1.8;;;;;;;15.22;65.33984;967.6156;;;;
2019/06/08 07:41:15;;;;;;;9.8;1.9;;;;;;;14.98;67.35547;967.6124;;;;
2019/06/08 07:43:40;;;;;;;7.5;1.6;;;;;;;15.29;66.03711;967.6121;;;;
2019/06/08 07:46:22;;;;;;;6;1.5;;;;;;;15.24;65.20215;967.6817;;;;
2019/06/08 07:48:59;;;;;;;8.2;1.8;;;;;;;15.27;64.02832;967.6144;;;;
2019/06/08 07:51:25;;;;;;;9;1.9;;;;;;;15.44;64.47266;967.6423;;;;
2019/06/08 07:53:49;;;;;;;6.5;1.5;;;;;;;15.39;64.97852;967.6227;;;;
2019/06/08 07:56:15;;;;;;;5.9;1.5;;;;;;;15.04;64.66992;967.6836;;;;
2019/06/08 07:58:41;;;;;;;5.4;1.5;;;;;;;15.07;64.7793;967.6626;;;;
2019/06/08 08:01:06;;;;;;;4.7;1.4;;;;;;;14.92;66.49316;967.7011;;;;
2019/06/08 08:03:31;;;;;;;2.7;1.3;;;;;;;15.17;65.29688;967.6772;;;;
2019/06/08 08:05:57;;;;;;;2.4;1.3;;;;;;;15.47;63.40332;967.6738;;;;
2019/06/08 08:08:26;;;;;;;3.6;1.5;;;;;;;15.26;65.58887;967.6887;;;;
2019/06/08 08:10:52;;;;;;;3.6;1.5;;;;;;;15.33;64.48047;967.5909;;;;
2019/06/08 08:13:17;;;;;;;6.7;1.6;;;;;;;15.45;63.65625;967.5948;;;;
2019/06/08 08:15:42;;;;;;;5.2;2;;;;;;;15.19;64.06445;967.649;;;;
2019/06/08 08:18:07;;;;;;;4.9;1.6;;;;;;;15.16;63.90723;967.6523;;;;
2019/06/08 08:20:40;;;;;;;4.3;1.7;;;;;;;14.99;64.43066;967.6154;;;;
2019/06/08 08:23:05;;;;;;;5.1;1.8;;;;;;;15;64.4668;967.683;;;;
2019/06/08 08:25:31;;;;;;;3.5;1.8;;;;;;;15.07;65.71289;967.6537;;;;
2019/06/08 08:27:57;;;;;;;5.3;1.6;;;;;;;15.58;64.87891;967.6956;;;;
2019/06/08 08:30:22;;;;;;;9.6;1.9;;;;;;;15.49;66.25391;967.7056;;;;
2019/06/08 08:32:48;;;;;;;4.8;1.6;;;;;;;15.68;63.72461;967.6984;;;;
2019/06/08 08:35:21;;;;;;;7.4;1.9;;;;;;;15.55;64.08008;967.7555;;;;
2019/06/08 08:37:47;;;;;;;4.9;1.8;;;;;;;15.75;63.67871;967.7371;;;;
2019/06/08 08:40:18;;;;;;;3;1.6;;;;;;;16.19;60.62109;967.7042;;;;
2019/06/08 08:42:50;;;;;;;3.9;1.6;;;;;;;15.37;62.88867;967.7147;;;;
2019/06/08 08:45:15;;;;;;;3.8;1.5;;;;;;;15.68;62.48828;967.7451;;;;
2019/06/08 08:47:40;;;;;;;5.8;1.9;;;;;;;15.66;62.37988;967.6702;;;;
2019/06/08 08:50:07;;;;;;;3.1;1.5;;;;;;;15.99;60.56934;967.753;;;;
2019/06/08 08:52:33;;;;;;;5;1.6;;;;;;;15.66;61.96094;967.7258;;;;
2019/06/08 08:54:58;;;;;;;3.8;1.5;;;;;;;15.89;61.56055;967.7989;;;;
2019/06/08 08:57:24;;;;;;;2.6;1.5;;;;;;;16.2;59.87402;967.7241;;;;
2019/06/08 08:59:49;;;;;;;4.6;1.6;;;;;;;15.98;60.39258;967.7198;;;;
2019/06/08 09:02:14;;;;;;;3.3;1.6;;;;;;;16.54;58.3291;967.7925;;;;
2019/06/08 09:04:39;;;;;;;5;1.8;;;;;;;15.79;57.98438;967.8401;;;;
2019/06/08 09:07:05;;;;;;;5;1.6;;;;;;;15.81;58.52344;967.8386;;;;
2019/06/08 09:09:39;;;;;;;4.2;1.6;;;;;;;15.8;58.90918;967.8044;;;;
2019/06/08 09:12:04;;;;;;;9.3;2;;;;;;;16.26;58.95898;967.8077;;;;
2019/06/08 09:14:29;;;;;;;5.6;1.7;;;;;;;16.28;56.72852;967.8008;;;;
2019/06/08 09:16:54;;;;;;;4;1.4;;;;;;;16.28;55.65234;967.8049;;;;
2019/06/08 09:19:22;;;;;;;3.8;1.4;;;;;;;16.19;55.79199;967.868;;;;
2019/06/08 09:21:47;;;;;;;4.6;1.9;;;;;;;15.82;58.0459;967.9319;;;;
2019/06/08 09:24:12;;;;;;;3.6;1.5;;;;;;;15.71;58.10059;967.927;;;;
2019/06/08 09:26:37;;;;;;;3.5;1.6;;;;;;;15.89;58.10352;967.9531;;;;
2019/06/08 09:29:02;;;;;;;4;1.7;;;;;;;15.85;57.15234;967.9277;;;;
2019/06/08 09:31:27;;;;;;;4.5;1.7;;;;;;;16.14;56.59277;967.921;;;;
2019/06/08 09:33:54;;;;;;;4.7;1.8;;;;;;;16.08;57.04004;968.0444;;;;
2019/06/08 09:36:20;;;;;;;4.5;1.5;;;;;;;15.9;56.90039;967.97;;;;
2019/06/08 09:38:46;;;;;;;4.3;1.5;;;;;;;16.03;56.5791;968.0069;;;;
2019/06/08 09:41:14;;;;;;;2.2;1.3;;;;;;;16.14;57.04883;967.9856;;;;
2019/06/08 09:43:39;;;;;;;4.1;1.7;;;;;;;16.14;56.2666;968.0711;;;;
2019/06/08 09:46:04;;;;;;;4.5;1.4;;;;;;;16.47;54.63574;968.0939;;;;
2019/06/08 09:48:37;;;;;;;5.9;1.7;;;;;;;16.72;53.25;968.1597;;;;
2019/06/08 09:51:02;;;;;;;5.6;1.9;;;;;;;16.69;51.5498;968.1542;;;;
2019/06/08 09:53:27;;;;;;;2.3;1.5;;;;;;;16.74;54.86816;968.1833;;;;
2019/06/08 09:55:52;;;;;;;3.4;1.8;;;;;;;17.26;49.81152;968.2212;;;;
2019/06/08 09:58:19;;;;;;;3.4;1.5;;;;;;;17.02;50.31152;968.2065;;;;
2019/06/08 10:00:53;;;;;;;3.4;1.6;;;;;;;17.38;49.69727;968.1768;;;;
2019/06/08 10:03:18;;;;;;;3.4;1.5;;;;;;;16.91;50.35742;968.0941;;;;
2019/06/08 10:05:43;;;;;;;3.8;1.6;;;;;;;17.56;49.03711;968.1079;;;;
2019/06/08 10:08:08;;;;;;;2.9;1.4;;;;;;;17.43;49.20996;968.1753;;;;
2019/06/08 10:10:33;;;;;;;3;1.4;;;;;;;17.32;45.81055;968.1583;;;;
2019/06/08 10:13:02;;;;;;;2.8;1.5;;;;;;;18.9;44.16504;968.055;;;;
2019/06/08 10:15:28;;;;;;;3;1.4;;;;;;;18.97;43.01758;968.0944;;;;
2019/06/08 10:17:57;;;;;;;4.7;1.7;;;;;;;17.81;44.50098;968.0558;;;;
2019/06/08 10:20:26;;;;;;;3.3;1.7;;;;;;;17.35;47.81836;968.1236;;;;
2019/06/08 10:22:58;;;;;;;6.8;1.5;;;;;;;17.96;45.26758;968.1666;;;;
2019/06/08 10:25:24;;;;;;;3;1.4;;;;;;;18.56;44.36523;968.0851;;;;
2019/06/08 10:27:49;;;;;;;3.5;1.6;;;;;;;18.37;46.37988;968.125;;;;
2019/06/08 10:30:14;;;;;;;5.9;1.7;;;;;;;17.89;46.04688;968.1064;;;;
2019/06/08 10:32:39;;;;;;;5.3;1.7;;;;;;;18.04;44.16113;968.0148;;;;
2019/06/08 10:35:04;;;;;;;3.5;1.7;;;;;;;18.37;42.96094;968.0302;;;;
2019/06/08 10:37:29;;;;;;;3.4;1.5;;;;;;;18.34;43.70898;968.1167;;;;
2019/06/08 10:39:54;;;;;;;3.7;1.9;;;;;;;18.08;43.63672;968.053;;;;
2019/06/08 10:42:19;;;;;;;3;1.3;;;;;;;18.36;43.47656;967.9622;;;;
2019/06/08 10:44:44;;;;;;;3.3;1.5;;;;;;;18.01;43.06641;968.0005;;;;
2019/06/08 10:47:09;;;;;;;4.5;1.5;;;;;;;17.4;45.25684;968.1443;;;;
2019/06/08 10:49:34;;;;;;;2.9;1.5;;;;;;;17.84;44.52734;967.9702;;;;
2019/06/08 10:52:19;;;;;;;3.4;1.6;;;;;;;18.07;43.21289;967.8906;;;;
2019/06/08 10:54:44;;;;;;;3.5;1.6;;;;;;;18.53;42.84668;967.9064;;;;
2019/06/08 10:57:15;;;;;;;2.6;1.5;;;;;;;19.2;39.37988;967.9095;;;;
2019/06/08 11:00:09;;;;;;;2.9;1.4;;;;;;;18.98;41.20801;967.8718;;;;
2019/06/08 11:02:34;;;;;;;2.2;1.3;;;;;;;19.58;38.24902;967.9553;;;;
2019/06/08 11:05:01;;;;;;;3.4;1.5;;;;;;;19.68;37.62109;967.9348;;;;
2019/06/08 11:07:26;;;;;;;3.6;1.6;;;;;;;20.37;35.5791;967.9137;;;;
2019/06/08 11:09:54;;;;;;;5;1.6;;;;;;;20.34;35.50586;967.8527;;;;
2019/06/08 11:12:19;;;;;;;2.6;1.3;;;;;;;20.31;36.55371;967.8425;;;;
2019/06/08 11:14:47;;;;;;;3;1.4;;;;;;;20.64;37.07617;967.8083;;;;
2019/06/08 11:17:12;;;;;;;5.2;1.6;;;;;;;21.08;35.58887;967.8656;;;;
2019/06/08 11:19:37;;;;;;;6;1.6;;;;;;;21.58;33.7832;967.8239;;;;
2019/06/08 11:22:02;;;;;;;4.3;1.5;;;;;;;22.67;33.35645;967.7635;;;;
2019/06/08 11:24:30;;;;;;;2.9;1.5;;;;;;;21.89;35.18066;967.7986;;;;
2019/06/08 11:26:59;;;;;;;6.4;1.8;;;;;;;22.43;34.83203;967.84;;;;
2019/06/08 11:29:27;;;;;;;5;1.5;;;;;;;20.93;35.69531;967.7599;;;;
2019/06/08 11:32:05;;;;;;;4.3;1.6;;;;;;;21.39;36.14648;967.7592;;;;
2019/06/08 11:34:32;;;;;;;4.4;1.8;;;;;;;21.14;33.21777;967.8141;;;;
2019/06/08 11:37:06;;;;;;;3.2;1.5;;;;;;;19.87;35.76367;967.7969;;;;
2019/06/08 11:39:50;;;;;;;3.7;1.7;;;;;;;20.77;34.68945;967.7478;;;;
2019/06/08 11:42:15;;;;;;;3.4;1.4;;;;;;;20.67;36.76074;967.8079;;;;
2019/06/08 11:44:40;;;;;;;3.5;1.5;;;;;;;21.93;33.14648;967.7622;;;;
2019/06/08 11:47:05;;;;;;;3.5;1.5;;;;;;;21.7;35.63965;967.6728;;;;
2019/06/08 11:49:35;;;;;;;3.1;1.4;;;;;;;20.86;35.26367;967.7094;;;;
2019/06/08 11:52:04;;;;;;;3.5;1.8;;;;;;;22.05;33.32227;967.6108;;;;
2019/06/08 11:54:29;;;;;;;2.3;1.4;;;;;;;22.5;31.41113;967.5396;;;;
2019/06/08 11:56:55;;;;;;;4.1;1.6;;;;;;;20.83;33.98535;967.6705;;;;
2019/06/08 11:59:37;;;;;;;4.9;1.9;;;;;;;22.14;31.53906;967.5342;;;;
2019/06/08 12:02:02;;;;;;;2.8;1.5;;;;;;;24.71;30.625;967.5428;;;;
2019/06/08 12:04:27;;;;;;;3;1.6;;;;;;;22.7;31.43652;967.5371;;;;
2019/06/08 12:06:53;;;;;;;3.2;1.8;;;;;;;23.64;28.89941;967.4094;;;;
2019/06/08 12:09:19;;;;;;;2.9;1.6;;;;;;;23.78;32.83398;967.4937;;;;
2019/06/08 12:11:44;;;;;;;6.9;1.6;;;;;;;22.04;33.59277;967.6038;;;;
2019/06/08 12:14:10;;;;;;;3;1.4;;;;;;;22.84;31.94531;967.4391;;;;
2019/06/08 12:16:44;;;;;;;3.9;1.5;;;;;;;22.12;34.47559;967.5279;;;;
2019/06/08 12:19:09;;;;;;;2;1.4;;;;;;;21.18;35.78613;967.5016;;;;
2019/06/08 12:21:34;;;;;;;3.8;1.8;;;;;;;20.91;34.52344;967.512;;;;
2019/06/08 12:24:00;;;;;;;2.8;1.6;;;;;;;22.29;30.69629;967.4603;;;;
2019/06/08 12:26:25;;;;;;;3.4;1.6;;;;;;;23.2;30.60449;967.4178;;;;
2019/06/08 12:28:50;;;;;;;3.1;1.4;;;;;;;23.1;31.23926;967.4189;;;;
2019/06/08 12:31:18;;;;;;;2.3;1.4;;;;;;;23.72;30.77148;967.4724;;;;
2019/06/08 12:33:49;;;;;;;4.1;1.6;;;;;;;23.64;28.69824;967.4486;;;;
2019/06/08 12:36:15;;;;;;;3.9;1.7;;;;;;;22.33;31.41016;967.438;;;;
2019/06/08 12:38:40;;;;;;;3;1.7;;;;;;;22.34;32.02734;967.4277;;;;
2019/06/08 12:41:14;;;;;;;4.4;1.8;;;;;;;23.71;28.86816;967.3389;;;;
2019/06/08 12:43:39;;;;;;;4.6;1.6;;;;;;;25.95;26.75488;967.313;;;;
2019/06/08 12:46:05;;;;;;;3.1;1.2;;;;;;;23.73;27.50293;967.3527;;;;
2019/06/08 12:48:30;;;;;;;3.7;1.6;;;;;;;25.1;26.15527;967.283;;;;
2019/06/08 12:50:55;;;;;;;3.2;1.6;;;;;;;23.9;27.25098;967.3145;;;;
2019/06/08 12:53:24;;;;;;;2.2;1.4;;;;;;;25.3;25.8457;967.2999;;;;
2019/06/08 12:55:50;;;;;;;5.1;1.7;;;;;;;25.28;24.96094;967.2642;;;;
2019/06/08 12:58:15;;;;;;;3.8;1.9;;;;;;;24.53;30.75586;967.348;;;;
2019/06/08 13:00:40;;;;;;;2.4;1.4;;;;;;;23.03;28.52832;967.3195;;;;
2019/06/08 13:03:05;;;;;;;2.9;1.6;;;;;;;22.97;31.99023;967.3803;;;;
2019/06/08 13:05:31;;;;;;;4.1;1.4;;;;;;;23.38;28.59766;967.3427;;;;
2019/06/08 13:08:47;;;;;;;2.3;1.5;;;;;;;23.09;30.02734;967.2946;;;;
2019/06/08 13:11:15;;;;;;;3.5;1.7;;;;;;;25.66;27.70508;967.2662;;;;
2019/06/08 13:13:41;;;;;;;3.2;1.7;;;;;;;24.08;28.72559;967.3751;;;;
2019/06/08 13:16:08;;;;;;;3.1;1.6;;;;;;;25.22;26.5918;967.3652;;;;
2019/06/08 13:18:32;;;;;;;3.1;1.5;;;;;;;23.32;31.88379;967.3787;;;;
2019/06/08 13:20:59;;;;;;;3;1.4;;;;;;;25.64;26.17578;967.3343;;;;
2019/06/08 13:23:30;;;;;;;3.2;1.7;;;;;;;23.1;29.83789;967.2752;;;;
2019/06/08 13:25:58;;;;;;;3;1.6;;;;;;;25;27.67676;967.2889;;;;
2019/06/08 13:28:23;;;;;;;4.7;1.5;;;;;;;23.17;29.17773;967.2393;;;;
2019/06/08 13:30:48;;;;;;;3;1.4;;;;;;;25;28.76172;967.302;;;;
2019/06/08 13:33:13;;;;;;;2.4;1.6;;;;;;;25.31;26.64551;967.3038;;;;
2019/06/08 13:35:38;;;;;;;2.8;1.6;;;;;;;25.16;26.92188;967.3878;;;;
2019/06/08 13:38:03;;;;;;;3.8;1.8;;;;;;;24.09;27.02539;967.3254;;;;
2019/06/08 13:40:28;;;;;;;2.7;1.3;;;;;;;23.94;30.47754;967.3049;;;;
2019/06/08 13:42:54;;;;;;;2.4;1.5;;;;;;;23.93;27.88281;967.2851;;;;
2019/06/08 13:45:19;;;;;;;2.2;1.5;;;;;;;24.94;26.81445;967.2944;;;;
2019/06/08 13:47:44;;;;;;;5.3;1.6;;;;;;;24.26;26.29688;967.3175;;;;
2019/06/08 13:50:09;;;;;;;1.7;1.2;;;;;;;25.02;25.56641;967.3602;;;;
2019/06/08 13:52:34;;;;;;;5;1.8;;;;;;;23.73;27.34766;967.2664;;;;
2019/06/08 13:55:01;;;;;;;2.4;1.4;;;;;;;24.48;25.01172;967.2683;;;;
2019/06/08 13:57:26;;;;;;;2.9;1.7;;;;;;;23.42;29.06348;967.2897;;;;
2019/06/08 13:59:55;;;;;;;2.6;1.5;;;;;;;25.74;23.85156;967.1757;;;;
2019/06/08 14:02:18;;;;;;;3.9;1.7;;;;;;;24.19;26.8877;967.1679;;;;
2019/06/08 14:04:43;;;;;;;2.3;1.6;;;;;;;24.08;27.3457;967.1658;;;;
2019/06/08 14:07:08;;;;;;;2.6;1.5;;;;;;;24.74;26.86133;967.2369;;;;
2019/06/08 14:09:33;;;;;;;3.9;1.5;;;;;;;24.93;26.07422;967.2131;;;;
2019/06/08 14:11:58;;;;;;;2.6;1.5;;;;;;;24.81;25.06641;967.2396;;;;
2019/06/08 14:14:23;;;;;;;2.7;1.4;;;;;;;26.36;23.4668;967.1177;;;;
2019/06/08 14:17:08;;;;;;;3.8;1.6;;;;;;;25.2;26.04297;967.1541;;;;
2019/06/08 14:19:34;;;;;;;4.8;1.8;;;;;;;27.04;22.69922;967.1649;;;;
2019/06/08 14:21:59;;;;;;;5.3;1.5;;;;;;;27.27;21.41699;967.1375;;;;
2019/06/08 14:24:25;;;;;;;2.2;1.5;;;;;;;26.85;23.01367;967.1171;;;;
2019/06/08 14:27:05;;;;;;;4.6;1.7;;;;;;;26.22;25.26465;967.1738;;;;
2019/06/08 14:29:30;;;;;;;3.5;1.5;;;;;;;24.88;25.95215;967.1242;;;;
2019/06/08 14:31:56;;;;;;;5.1;1.7;;;;;;;22.83;28.15918;967.1088;;;;
2019/06/08 14:34:21;;;;;;;2.9;1.4;;;;;;;26.09;25.99902;967.1339;;;;
2019/06/08 14:36:46;;;;;;;2.7;1.5;;;;;;;24.68;27.13184;967.1284;;;;
2019/06/08 14:39:34;;;;;;;2.2;1.4;;;;;;;26.34;23.23828;967.0939;;;;
2019/06/08 14:42:02;;;;;;;1.8;1.5;;;;;;;25.75;25.09473;967.1208;;;;
2019/06/08 14:44:36;;;;;;;4;1.5;;;;;;;26.72;22.62305;967.0867;;;;
2019/06/08 14:49:31;;;;;;;2.7;1.6;;;;;;;24.35;29.50488;967.0733;;;;
2019/06/08 14:52:16;;;;;;;3.7;1.5;;;;;;;25.38;25.32422;967.1006;;;;
2019/06/08 14:54:44;;;;;;;3.4;1.6;;;;;;;24.28;27.73828;967.0795;;;;
2019/06/08 14:57:10;;;;;;;4;1.5;;;;;;;25.24;25.81738;967.0302;;;;
2019/06/08 14:59:35;;;;;;;2.9;1.6;;;;;;;23.82;26.00879;967.0876;;;;
2019/06/08 15:02:01;;;;;;;3.6;1.5;;;;;;;24.4;24.00684;966.9881;;;;
2019/06/08 15:04:25;;;;;;;2.4;1.5;;;;;;;25.69;25.05566;966.9561;;;;
2019/06/08 15:06:50;;;;;;;2;1.4;;;;;;;25.59;24.41797;966.9402;;;;
2019/06/08 15:09:20;;;;;;;2;1.4;;;;;;;23.95;25.91016;966.9981;;;;
2019/06/08 15:11:58;;;;;;;3;1.6;;;;;;;24.57;26.48242;966.9403;;;;
2019/06/08 15:14:23;;;;;;;2.1;1.4;;;;;;;25.23;24.82715;966.9446;;;;
2019/06/08 15:17:05;;;;;;;4.8;1.6;;;;;;;25.37;23.13965;966.9053;;;;
2019/06/08 15:19:38;;;;;;;2.8;1.5;;;;;;;23.98;26.53027;966.9724;;;;
2019/06/08 15:22:21;;;;;;;2.6;1.5;;;;;;;24.23;26.96191;966.8522;;;;
2019/06/08 15:24:51;;;;;;;2.4;1.4;;;;;;;24.63;27.77246;966.8828;;;;
2019/06/08 15:27:21;;;;;;;2.8;1.4;;;;;;;25.14;22.99707;966.8226;;;;
2019/06/08 15:29:49;;;;;;;2.3;1.4;;;;;;;25.86;23.81055;966.7544;;;;
2019/06/08 15:32:14;;;;;;;2.7;1.5;;;;;;;25.19;25.40918;966.885;;;;
2019/06/08 15:34:40;;;;;;;3.6;1.6;;;;;;;26.16;22.73926;966.724;;;;
2019/06/08 15:37:05;;;;;;;1.9;1.4;;;;;;;26.06;23.64258;966.6703;;;;
2019/06/08 15:39:48;;;;;;;2.7;1.4;;;;;;;25.95;25.48828;966.6755;;;;
2019/06/08 15:42:29;;;;;;;5.1;1.5;;;;;;;26.23;22.82617;966.7092;;;;
2019/06/08 15:45:02;;;;;;;2.1;1.5;;;;;;;25.14;25.66895;966.6431;;;;